createdAt,value
2023-02-22T00:02:27.227Z,4.10
2023-02-22T00:08:00.922Z,4.00
2023-02-22T00:13:32.741Z,4.00
2023-02-22T00:19:15.335Z,3.90
2023-02-22T00:24:43.741Z,3.90
2023-02-22T00:30:20.687Z,3.80
2023-02-22T00:35:49.009Z,3.70
2023-02-22T00:41:17.813Z,3.60
2023-02-22T00:46:46.201Z,3.60
2023-02-22T00:52:18.288Z,3.50
2023-02-22T00:57:46.657Z,3.50
2023-02-22T01:03:20.440Z,3.40
2023-02-22T01:08:49.525Z,3.40
2023-02-22T01:14:45.689Z,3.30
2023-02-22T01:20:13.873Z,3.20
2023-02-22T01:25:43.562Z,3.20
2023-02-22T01:31:12.621Z,3.10
2023-02-22T01:36:42.960Z,3.00
2023-02-22T01:42:11.347Z,2.90
2023-02-22T01:47:41.514Z,2.80
2023-02-22T01:53:13.975Z,2.70
2023-02-22T01:58:47.152Z,2.60
2023-02-22T02:04:25.709Z,2.60
2023-02-22T02:10:01.958Z,2.50
2023-02-22T02:15:32.445Z,2.50
2023-02-22T02:21:03.739Z,2.50
2023-02-22T02:26:56.499Z,2.50
2023-02-22T02:32:38.868Z,2.50
2023-02-22T02:38:46.399Z,2.60
2023-02-22T02:44:20.354Z,2.60
2023-02-22T02:50:00.544Z,2.60
2023-02-22T02:55:36.984Z,2.50
2023-02-22T03:01:05.655Z,2.50
2023-02-22T03:06:44.356Z,2.50
2023-02-22T03:12:15.560Z,2.50
2023-02-22T03:18:10.947Z,2.50
2023-02-22T03:23:56.161Z,2.50
2023-02-22T03:29:27.104Z,2.50
2023-02-22T03:35:00.544Z,2.50
2023-02-22T03:40:37.816Z,2.50
2023-02-22T03:46:11.090Z,2.50
2023-02-22T03:51:39.795Z,2.50
2023-02-22T03:57:27.018Z,2.50
2023-02-22T04:03:06.063Z,2.50
2023-02-22T04:08:35.237Z,2.40
2023-02-22T04:14:05.206Z,2.30
2023-02-22T04:19:33.509Z,2.30
2023-02-22T04:25:02.068Z,2.20
2023-02-22T04:30:30.333Z,2.20
2023-02-22T04:35:59.565Z,2.20
2023-02-22T04:41:27.947Z,2.10
2023-02-22T04:46:56.746Z,2.10
2023-02-22T04:52:26.816Z,2.00
2023-02-22T04:57:56.760Z,2.00
2023-02-22T05:03:25.148Z,1.90
2023-02-22T05:08:55.220Z,1.90
2023-02-22T05:14:26.946Z,1.80
2023-02-22T05:19:58.354Z,1.70
2023-02-22T05:25:29.434Z,1.70
2023-02-22T05:31:06.344Z,1.70
2023-02-22T05:36:34.632Z,1.70
2023-02-22T05:42:03.100Z,1.70
2023-02-22T05:47:31.308Z,1.70
2023-02-22T05:52:59.968Z,1.70
2023-02-22T05:58:34.559Z,1.60
2023-02-22T06:04:07.786Z,1.60
2023-02-22T06:09:36.165Z,1.60
2023-02-22T06:15:04.600Z,1.60
2023-02-22T06:20:35.166Z,1.60
2023-02-22T06:26:05.385Z,1.60
2023-02-22T06:31:36.852Z,1.60
2023-02-22T06:37:06.456Z,1.70
2023-02-22T06:42:35.793Z,1.70
2023-02-22T06:48:21.267Z,1.80
2023-02-22T06:53:52.049Z,2.00
2023-02-22T06:59:21.538Z,2.20
2023-02-22T07:04:49.912Z,2.40
2023-02-22T07:10:24.683Z,2.60
2023-02-22T07:15:55.826Z,2.80
2023-02-22T07:21:25.027Z,3.10
2023-02-22T07:26:54.245Z,3.40
2023-02-22T07:32:25.679Z,3.70
2023-02-22T07:38:06.636Z,4.10
2023-02-22T07:43:46.880Z,4.50
2023-02-22T07:49:18.045Z,4.80
2023-02-22T07:54:49.094Z,5.10
2023-02-22T08:00:49.207Z,5.40
2023-02-22T08:06:36.148Z,5.70
2023-02-22T08:12:13.186Z,6.10
2023-02-22T08:17:49.906Z,6.40
2023-02-22T08:23:36.149Z,6.70
2023-02-22T08:29:37.069Z,7.00
2023-02-22T08:35:29.260Z,7.40
2023-02-22T08:41:11.498Z,7.80
2023-02-22T08:47:16.478Z,8.20
2023-02-22T08:53:11.269Z,8.70
2023-02-22T08:59:04.729Z,9.00
2023-02-22T09:04:57.634Z,9.30
2023-02-22T09:10:31.065Z,9.60
2023-02-22T09:16:55.639Z,10.00
2023-02-22T09:22:42.257Z,10.40
2023-02-22T09:28:16.962Z,10.60
2023-02-22T09:33:55.478Z,11.00
2023-02-22T09:39:24.227Z,11.30
2023-02-22T09:45:07.281Z,11.60
2023-02-22T09:50:39.625Z,11.90
2023-02-22T09:56:15.126Z,12.20
2023-02-22T10:01:49.051Z,12.60
2023-02-22T10:07:18.726Z,12.90
2023-02-22T10:13:03.300Z,13.20
2023-02-22T10:19:17.487Z,13.50
2023-02-22T10:25:05.175Z,13.70
2023-02-22T10:31:02.913Z,13.90
2023-02-22T10:36:31.103Z,14.10
2023-02-22T10:42:08.221Z,14.30
2023-02-22T10:47:37.987Z,14.40
2023-02-22T10:53:10.277Z,14.60
2023-02-22T10:58:52.776Z,14.90
2023-02-22T11:04:22.471Z,15.20
2023-02-22T11:10:09.511Z,15.40
2023-02-22T11:15:37.695Z,15.50
2023-02-22T11:21:12.568Z,15.70
2023-02-22T11:27:02.216Z,15.90
2023-02-22T11:32:30.293Z,16.10
2023-02-22T11:38:28.513Z,16.40
2023-02-22T11:44:15.255Z,16.70
2023-02-22T11:56:09.847Z,17.00
2023-02-22T12:01:57.342Z,17.10
2023-02-22T12:08:19.643Z,17.00
2023-02-22T12:14:26.075Z,17.00
2023-02-22T12:20:02.786Z,17.00
2023-02-22T12:25:41.765Z,16.80
2023-02-22T12:32:19.385Z,17.00
2023-02-22T12:38:13.317Z,17.10
2023-02-22T12:44:01.900Z,17.20
2023-02-22T12:49:57.962Z,17.30
2023-02-22T12:55:35.913Z,17.40
2023-02-22T13:01:22.075Z,17.40
2023-02-22T13:07:21.633Z,17.40
2023-02-22T13:12:53.231Z,17.40
2023-02-22T13:18:50.765Z,17.50
2023-02-22T13:25:08.750Z,18.00
2023-02-22T13:30:48.405Z,18.50
2023-02-22T13:36:31.023Z,19.30
2023-02-22T13:42:20.466Z,20.10
2023-02-22T13:48:28.038Z,20.80
2023-02-22T13:55:17.735Z,22.20
2023-02-22T14:00:59.462Z,22.70
2023-02-22T14:06:46.262Z,22.80
2023-02-22T14:12:37.140Z,22.40
2023-02-22T14:18:08.817Z,23.00
2023-02-22T14:23:58.870Z,24.30
2023-02-22T14:29:33.394Z,24.80
2023-02-22T14:35:27.602Z,23.90
2023-02-22T14:41:09.020Z,24.40
2023-02-22T14:47:15.411Z,23.60
2023-02-22T15:00:35.964Z,21.40
2023-02-22T15:06:22.242Z,20.30
2023-02-22T15:12:05.400Z,19.20
2023-02-22T15:17:33.830Z,18.50
2023-02-22T15:24:07.570Z,18.00
2023-02-22T15:30:05.796Z,17.50
2023-02-22T15:35:34.587Z,17.10
2023-02-22T15:41:10.555Z,16.70
2023-02-22T15:48:08.242Z,16.40
2023-02-22T15:55:06.785Z,16.00
2023-02-22T16:01:51.959Z,15.80
2023-02-22T16:08:55.696Z,15.50
2023-02-22T16:14:35.760Z,15.20
2023-02-22T16:20:35.846Z,15.00
2023-02-22T16:26:36.976Z,14.70
2023-02-22T16:32:11.291Z,14.50
2023-02-22T16:37:50.684Z,14.20
2023-02-22T16:43:33.006Z,13.90
2023-02-22T16:49:07.310Z,13.60
2023-02-22T16:54:51.154Z,13.50
2023-02-22T17:01:02.000Z,13.20
2023-02-22T17:06:50.689Z,13.00
2023-02-22T17:12:46.611Z,12.70
2023-02-22T17:19:01.886Z,12.50
2023-02-22T17:25:01.345Z,12.30
2023-02-22T17:30:55.240Z,12.10
2023-02-22T17:36:56.754Z,11.90
2023-02-22T17:42:45.456Z,11.70
2023-02-22T17:48:38.377Z,11.40
2023-02-22T17:54:10.418Z,11.30
2023-02-22T18:00:03.863Z,11.10
2023-02-22T18:05:50.443Z,11.00
2023-02-22T18:11:26.453Z,11.00
2023-02-22T18:17:06.060Z,10.80
2023-02-22T18:22:37.312Z,10.70
2023-02-22T18:28:09.311Z,10.50
2023-02-22T18:33:49.374Z,10.30
2023-02-22T18:39:20.576Z,10.10
2023-02-22T18:44:49.273Z,9.90
2023-02-22T18:50:22.229Z,9.70
2023-02-22T18:55:50.438Z,9.50
2023-02-22T19:01:23.994Z,9.30
2023-02-22T19:06:54.848Z,9.10
2023-02-22T19:12:23.743Z,8.90
2023-02-22T19:17:51.974Z,8.80
2023-02-22T19:23:19.899Z,8.70
2023-02-22T19:28:49.046Z,8.60
2023-02-22T19:34:19.675Z,8.60
2023-02-22T19:39:48.184Z,8.70
2023-02-22T19:45:18.593Z,8.70
2023-02-22T19:50:49.859Z,8.80
2023-02-22T19:56:33.214Z,8.90
2023-02-22T20:02:06.921Z,8.90
2023-02-22T20:07:43.622Z,8.80
2023-02-22T20:13:17.237Z,8.80
2023-02-22T20:18:58.846Z,8.70
2023-02-22T20:24:33.973Z,8.70
2023-02-22T20:30:03.692Z,8.70
2023-02-22T20:35:34.126Z,8.60
2023-02-22T20:41:15.774Z,8.60
2023-02-22T20:46:45.532Z,8.50
2023-02-22T20:52:13.733Z,8.50
2023-02-22T20:57:41.881Z,8.50
2023-02-22T21:03:11.257Z,8.40
2023-02-22T21:08:55.537Z,8.40
2023-02-22T21:14:29.668Z,8.30
2023-02-22T21:19:58.722Z,8.20
2023-02-22T21:25:31.752Z,8.20
2023-02-22T21:31:12.027Z,8.10
2023-02-22T21:36:40.748Z,8.00
2023-02-22T21:42:08.620Z,8.00
2023-02-22T21:47:52.481Z,8.00
2023-02-22T21:53:20.849Z,7.90
2023-02-22T21:59:00.930Z,7.90
2023-02-22T22:04:41.443Z,7.90
2023-02-22T22:10:37.515Z,7.90
2023-02-22T22:16:12.443Z,7.80
2023-02-22T22:21:41.354Z,7.80
2023-02-22T22:27:13.054Z,7.90
2023-02-22T22:32:45.679Z,7.90
2023-02-22T22:38:15.949Z,7.90
2023-02-22T22:43:49.875Z,7.90
2023-02-22T22:49:20.616Z,7.90
2023-02-22T22:54:50.825Z,7.90
2023-02-22T23:00:30.576Z,7.90
2023-02-22T23:06:20.379Z,7.90
2023-02-22T23:11:58.476Z,7.90
2023-02-22T23:17:41.205Z,8.00
2023-02-22T23:23:14.759Z,7.90
2023-02-22T23:28:44.800Z,7.90
2023-02-22T23:34:17.154Z,7.90
2023-02-22T23:39:50.951Z,7.80
2023-02-22T23:45:25.232Z,7.80
2023-02-22T23:50:59.670Z,7.70
2023-02-22T23:56:28.597Z,7.60
